createdAt,value
2023-03-19T00:00:44.912Z,52.79
2023-03-19T00:03:11.922Z,52.64
2023-03-19T00:05:38.977Z,52.97
2023-03-19T00:08:06.155Z,52.73
2023-03-19T00:10:33.120Z,53.10
2023-03-19T00:13:00.604Z,53.19
2023-03-19T00:15:27.618Z,53.71
2023-03-19T00:17:56.445Z,53.91
2023-03-19T00:20:23.389Z,53.96
2023-03-19T00:22:50.465Z,53.52
2023-03-19T00:25:17.736Z,53.19
2023-03-19T00:27:44.778Z,53.86
2023-03-19T00:30:12.437Z,53.73
2023-03-19T00:32:40.420Z,54.23
2023-03-19T00:35:08.653Z,53.99
2023-03-19T00:37:37.337Z,53.94
2023-03-19T00:40:05.600Z,53.36
2023-03-19T00:42:34.587Z,53.36
2023-03-19T00:45:01.534Z,53.62
2023-03-19T00:47:28.609Z,53.83
2023-03-19T00:49:56.070Z,54.16
2023-03-19T00:52:23.039Z,54.21
2023-03-19T00:54:50.301Z,54.49
2023-03-19T00:57:18.789Z,54.44
2023-03-19T00:59:45.812Z,55.18
2023-03-19T01:02:12.747Z,55.23
2023-03-19T01:04:39.780Z,55.06
2023-03-19T01:07:07.004Z,55.37
2023-03-19T01:09:35.835Z,55.05
2023-03-19T01:12:04.736Z,54.76
2023-03-19T01:14:32.520Z,54.87
2023-03-19T01:17:00.179Z,54.94
2023-03-19T01:19:27.539Z,55.09
2023-03-19T01:21:54.627Z,55.29
2023-03-19T01:24:23.002Z,55.26
2023-03-19T01:26:53.593Z,55.17
2023-03-19T01:29:32.005Z,55.03
2023-03-19T01:32:06.051Z,55.36
2023-03-19T01:34:59.220Z,55.53
2023-03-19T01:37:26.493Z,55.64
2023-03-19T01:39:53.653Z,55.59
2023-03-19T01:42:20.672Z,55.91
2023-03-19T01:44:47.757Z,56.75
2023-03-19T01:47:34.148Z,57.23
2023-03-19T01:50:31.806Z,57.97
2023-03-19T01:53:17.657Z,58.52
2023-03-19T01:56:04.183Z,58.20
2023-03-19T01:58:42.106Z,57.92
2023-03-19T02:01:28.207Z,58.05
2023-03-19T02:03:57.159Z,57.12
2023-03-19T02:06:30.113Z,56.67
2023-03-19T02:08:58.984Z,56.87
2023-03-19T02:11:26.353Z,56.65
2023-03-19T02:13:53.609Z,56.69
2023-03-19T02:16:21.238Z,56.98
2023-03-19T02:18:49.334Z,56.92
2023-03-19T02:21:18.430Z,57.15
2023-03-19T02:24:23.233Z,56.98
2023-03-19T02:27:02.014Z,57.30
2023-03-19T02:29:29.609Z,57.24
2023-03-19T02:31:59.508Z,56.92
2023-03-19T02:34:26.341Z,56.98
2023-03-19T02:37:03.391Z,57.04
2023-03-19T02:39:49.253Z,57.11
2023-03-19T02:42:18.787Z,57.36
2023-03-19T02:44:46.198Z,57.60
2023-03-19T02:47:13.625Z,57.59
2023-03-19T02:49:40.619Z,57.50
2023-03-19T02:52:08.061Z,57.77
2023-03-19T02:54:35.189Z,58.38
2023-03-19T02:57:02.198Z,58.43
2023-03-19T02:59:29.177Z,58.28
2023-03-19T03:01:56.563Z,58.79
2023-03-19T03:04:23.574Z,58.63
2023-03-19T03:06:50.536Z,58.85
2023-03-19T03:09:18.211Z,58.56
2023-03-19T03:11:45.315Z,59.17
2023-03-19T03:14:12.453Z,58.71
2023-03-19T03:16:39.550Z,58.91
2023-03-19T03:19:07.041Z,58.97
2023-03-19T03:21:35.681Z,59.38
2023-03-19T03:24:04.018Z,59.52
2023-03-19T03:26:31.657Z,60.08
2023-03-19T03:28:58.618Z,59.84
2023-03-19T03:31:26.964Z,59.49
2023-03-19T03:33:54.170Z,59.55
2023-03-19T03:36:21.489Z,59.41
2023-03-19T03:38:48.472Z,59.60
2023-03-19T03:41:15.949Z,59.98
2023-03-19T03:43:42.950Z,60.08
2023-03-19T03:46:10.095Z,60.87
2023-03-19T03:48:37.409Z,60.64
2023-03-19T03:51:04.549Z,60.70
2023-03-19T03:53:32.831Z,60.83
2023-03-19T03:56:01.366Z,61.12
2023-03-19T03:58:29.899Z,60.74
2023-03-19T04:00:56.906Z,60.76
2023-03-19T04:03:24.566Z,61.12
2023-03-19T04:05:52.364Z,61.10
2023-03-19T04:08:21.223Z,61.04
2023-03-19T04:10:48.379Z,60.63
2023-03-19T04:13:15.457Z,61.34
2023-03-19T04:15:43.841Z,61.08
2023-03-19T04:18:12.161Z,60.71
2023-03-19T04:20:40.075Z,61.13
2023-03-19T04:23:07.189Z,60.94
2023-03-19T04:25:34.361Z,61.79
2023-03-19T04:28:01.986Z,60.98
2023-03-19T04:30:29.315Z,61.14
2023-03-19T04:32:56.711Z,60.42
2023-03-19T04:35:24.025Z,60.73
2023-03-19T04:37:51.599Z,60.92
2023-03-19T04:40:20.557Z,60.54
2023-03-19T04:42:48.575Z,61.35
2023-03-19T04:45:28.768Z,61.37
2023-03-19T04:47:56.279Z,61.12
2023-03-19T04:50:23.448Z,60.86
2023-03-19T04:52:51.061Z,60.74
2023-03-19T04:55:18.285Z,60.18
2023-03-19T04:58:02.354Z,60.78
2023-03-19T05:00:32.676Z,60.93
2023-03-19T05:03:00.116Z,60.91
2023-03-19T05:05:29.100Z,61.20
2023-03-19T05:07:57.386Z,60.88
2023-03-19T05:10:25.055Z,60.73
2023-03-19T05:12:52.314Z,61.35
2023-03-19T05:15:19.744Z,61.44
2023-03-19T05:17:57.731Z,61.73
2023-03-19T05:20:31.399Z,61.88
2023-03-19T05:23:05.310Z,61.61
2023-03-19T05:25:41.845Z,61.28
2023-03-19T05:28:11.460Z,61.54
2023-03-19T05:30:38.640Z,61.09
2023-03-19T05:33:10.725Z,61.32
2023-03-19T05:35:41.281Z,61.13
2023-03-19T05:38:22.086Z,61.31
2023-03-19T05:40:55.716Z,61.43
2023-03-19T05:43:32.572Z,61.49
2023-03-19T05:46:01.698Z,61.50
2023-03-19T05:48:33.417Z,62.07
2023-03-19T05:51:01.886Z,61.94
2023-03-19T05:53:34.628Z,61.72
2023-03-19T05:56:21.696Z,61.92
2023-03-19T05:59:00.276Z,61.94
2023-03-19T06:01:34.931Z,62.14
2023-03-19T06:04:03.676Z,62.66
2023-03-19T06:06:31.797Z,62.20
2023-03-19T06:08:58.759Z,62.11
2023-03-19T06:11:34.052Z,62.67
2023-03-19T06:14:24.152Z,62.41
2023-03-19T06:17:09.745Z,62.62
2023-03-19T06:19:36.953Z,62.44
2023-03-19T06:22:04.215Z,62.05
2023-03-19T06:24:31.357Z,62.04
2023-03-19T06:26:58.384Z,62.13
2023-03-19T06:29:26.968Z,62.70
2023-03-19T06:32:00.449Z,62.90
2023-03-19T06:34:36.689Z,62.14
2023-03-19T06:37:03.696Z,62.11
2023-03-19T06:39:30.636Z,62.56
2023-03-19T06:41:57.629Z,61.93
2023-03-19T06:44:27.305Z,62.76
2023-03-19T06:46:54.307Z,63.02
2023-03-19T06:49:21.949Z,62.93
2023-03-19T06:51:48.941Z,62.95
2023-03-19T06:54:16.204Z,62.10
2023-03-19T06:56:43.686Z,62.11
2023-03-19T06:59:13.029Z,63.36
2023-03-19T07:01:43.093Z,63.31
2023-03-19T07:04:11.180Z,63.12
2023-03-19T07:06:38.302Z,63.09
2023-03-19T07:09:05.317Z,62.38
2023-03-19T07:11:35.191Z,62.77
2023-03-19T07:14:04.007Z,63.17
2023-03-19T07:16:31.406Z,62.70
2023-03-19T07:18:58.439Z,62.78
2023-03-19T07:21:25.580Z,62.63
2023-03-19T07:23:52.522Z,62.20
2023-03-19T07:26:19.519Z,62.62
2023-03-19T07:28:46.662Z,62.63
2023-03-19T07:31:14.218Z,62.54
2023-03-19T07:33:41.281Z,62.97
2023-03-19T07:36:08.763Z,62.39
2023-03-19T07:38:35.841Z,62.36
2023-03-19T07:41:03.240Z,62.70
2023-03-19T07:43:31.437Z,62.78
2023-03-19T07:45:59.166Z,61.80
2023-03-19T07:48:26.587Z,61.63
2023-03-19T07:50:54.240Z,61.89
2023-03-19T07:53:21.425Z,62.21
2023-03-19T07:55:49.028Z,62.03
2023-03-19T07:58:16.939Z,62.69
2023-03-19T08:00:45.091Z,62.10
2023-03-19T08:03:12.730Z,61.70
2023-03-19T08:05:39.984Z,61.50
2023-03-19T08:08:07.233Z,61.69
2023-03-19T08:10:36.479Z,61.76
2023-03-19T08:13:05.279Z,61.82
2023-03-19T08:15:33.193Z,62.06
2023-03-19T08:18:01.595Z,61.17
2023-03-19T08:20:28.630Z,62.00
2023-03-19T08:22:57.484Z,61.63
2023-03-19T08:25:25.724Z,61.34
2023-03-19T08:27:53.001Z,61.68
2023-03-19T08:30:19.977Z,61.65
2023-03-19T08:32:47.076Z,61.49
2023-03-19T08:35:14.200Z,61.38
2023-03-19T08:37:41.134Z,61.25
2023-03-19T08:40:09.801Z,61.07
2023-03-19T08:42:44.353Z,60.73
2023-03-19T08:45:14.875Z,60.35
2023-03-19T08:47:43.501Z,60.05
2023-03-19T08:50:11.405Z,60.55
2023-03-19T08:52:38.433Z,59.92
2023-03-19T08:55:06.206Z,60.75
2023-03-19T08:57:33.690Z,59.86
2023-03-19T09:00:01.856Z,58.16
2023-03-19T09:02:28.825Z,58.99
2023-03-19T09:04:55.838Z,58.18
2023-03-19T09:07:22.940Z,58.50
2023-03-19T09:09:50.436Z,57.71
2023-03-19T09:12:18.879Z,57.34
2023-03-19T09:14:45.870Z,57.84
2023-03-19T09:17:13.682Z,57.18
2023-03-19T09:19:41.572Z,57.27
2023-03-19T09:22:08.536Z,58.82
2023-03-19T09:24:35.491Z,58.86
2023-03-19T09:27:02.808Z,58.22
2023-03-19T09:29:29.906Z,58.39
2023-03-19T09:31:56.849Z,58.40
2023-03-19T09:34:24.477Z,58.13
2023-03-19T09:36:51.434Z,58.79
2023-03-19T09:39:18.452Z,58.17
2023-03-19T09:42:10.656Z,59.19
2023-03-19T09:44:41.185Z,57.56
2023-03-19T09:47:28.768Z,59.13
2023-03-19T09:49:59.971Z,58.94
2023-03-19T09:52:53.867Z,58.18
2023-03-19T09:55:47.935Z,59.17
2023-03-19T09:58:21.294Z,59.83
2023-03-19T10:00:52.259Z,59.13
2023-03-19T10:03:31.589Z,60.13
2023-03-19T10:06:21.153Z,58.94
2023-03-19T10:09:37.156Z,57.16
2023-03-19T10:12:22.811Z,59.82
2023-03-19T10:15:31.945Z,57.69
2023-03-19T10:18:12.237Z,59.45
2023-03-19T10:21:12.644Z,59.62
2023-03-19T10:23:46.812Z,58.56
2023-03-19T10:26:18.037Z,56.45
2023-03-19T10:29:02.611Z,56.95
2023-03-19T10:31:51.837Z,55.76
2023-03-19T10:34:33.554Z,57.02
2023-03-19T10:37:14.865Z,56.46
2023-03-19T10:39:45.389Z,55.49
2023-03-19T10:42:41.231Z,55.30
2023-03-19T10:45:32.284Z,56.95
2023-03-19T10:48:02.681Z,54.75
2023-03-19T10:50:42.677Z,56.69
2023-03-19T10:53:15.278Z,55.27
2023-03-19T10:55:53.219Z,56.33
2023-03-19T10:58:25.628Z,55.52
2023-03-19T11:01:09.533Z,55.65
2023-03-19T11:03:51.354Z,54.84
2023-03-19T11:06:33.694Z,55.12
2023-03-19T11:12:25.376Z,54.26
2023-03-19T11:14:56.294Z,52.94
2023-03-19T11:17:40.395Z,53.50
2023-03-19T11:20:36.281Z,53.67
2023-03-19T11:23:13.865Z,53.76
2023-03-19T11:25:52.424Z,53.93
2023-03-19T11:28:26.811Z,54.78
2023-03-19T11:31:50.297Z,53.45
2023-03-19T11:34:25.512Z,53.79
2023-03-19T11:37:16.411Z,53.83
2023-03-19T11:39:58.620Z,53.63
2023-03-19T11:42:52.219Z,54.76
2023-03-19T11:45:33.473Z,54.22
2023-03-19T11:48:33.839Z,55.20
2023-03-19T11:51:46.962Z,56.21
2023-03-19T11:54:44.023Z,55.65
2023-03-19T11:57:52.570Z,55.39
2023-03-19T12:00:52.144Z,52.51
2023-03-19T12:03:50.007Z,54.71
2023-03-19T12:06:24.891Z,52.75
2023-03-19T12:09:23.886Z,51.59
2023-03-19T12:12:27.177Z,52.46
2023-03-19T12:15:36.001Z,53.05
2023-03-19T12:18:39.909Z,51.74
2023-03-19T12:21:15.797Z,52.00
2023-03-19T12:24:25.090Z,53.14
2023-03-19T12:27:33.644Z,49.98
2023-03-19T12:30:15.544Z,51.01
2023-03-19T12:33:09.992Z,52.20
2023-03-19T12:35:40.816Z,52.14
2023-03-19T12:38:46.469Z,53.66
2023-03-19T12:41:31.397Z,54.85
2023-03-19T12:44:25.846Z,52.32
2023-03-19T12:47:09.661Z,52.39
2023-03-19T12:50:07.116Z,52.23
2023-03-19T12:52:39.980Z,52.08
2023-03-19T12:55:26.566Z,51.52
2023-03-19T12:58:24.210Z,50.72
2023-03-19T13:01:08.937Z,52.45
2023-03-19T13:04:04.261Z,50.63
2023-03-19T13:06:47.750Z,50.97
2023-03-19T13:09:33.757Z,51.49
2023-03-19T13:12:25.660Z,50.38
2023-03-19T13:15:07.179Z,51.10
2023-03-19T13:17:42.224Z,51.33
2023-03-19T13:20:27.629Z,51.94
2023-03-19T13:23:03.128Z,52.14
2023-03-19T13:25:39.803Z,52.34
2023-03-19T13:28:30.579Z,52.57
2023-03-19T13:31:17.670Z,52.45
2023-03-19T13:34:05.069Z,52.74
2023-03-19T13:36:41.671Z,52.68
2023-03-19T13:39:18.917Z,52.65
2023-03-19T13:41:57.836Z,52.62
2023-03-19T13:44:32.490Z,53.23
2023-03-19T13:47:25.556Z,52.93
2023-03-19T13:50:22.722Z,53.28
2023-03-19T13:52:52.380Z,52.98
2023-03-19T13:55:27.969Z,53.19
2023-03-19T13:58:12.198Z,53.06
2023-03-19T14:00:42.829Z,53.70
2023-03-19T14:03:30.832Z,53.23
2023-03-19T14:05:59.582Z,54.16
2023-03-19T14:08:51.620Z,54.03
2023-03-19T14:11:33.738Z,54.76
2023-03-19T14:14:08.740Z,55.17
2023-03-19T14:16:41.898Z,55.25
2023-03-19T14:19:17.809Z,55.64
2023-03-19T14:21:59.966Z,54.81
2023-03-19T14:24:58.247Z,55.57
2023-03-19T14:27:33.074Z,55.48
2023-03-19T14:30:16.594Z,55.85
2023-03-19T14:32:47.930Z,56.38
2023-03-19T14:35:20.494Z,56.68
2023-03-19T14:37:52.125Z,56.63
2023-03-19T14:40:32.694Z,56.77
2023-03-19T14:43:22.183Z,56.47
2023-03-19T14:46:03.936Z,56.62
2023-03-19T14:48:55.133Z,56.99
2023-03-19T14:51:24.649Z,57.43
2023-03-19T14:54:03.280Z,57.77
2023-03-19T14:56:36.615Z,57.61
2023-03-19T14:59:06.051Z,57.67
2023-03-19T15:01:41.034Z,57.46
2023-03-19T15:04:12.339Z,57.23
2023-03-19T15:06:42.802Z,57.33
2023-03-19T15:09:32.169Z,57.25
2023-03-19T15:13:08.921Z,57.01
2023-03-19T15:16:13.704Z,56.84
2023-03-19T15:18:40.858Z,57.20
2023-03-19T15:21:08.007Z,57.46
2023-03-19T15:23:46.990Z,56.93
2023-03-19T15:26:15.697Z,57.52
2023-03-19T15:28:53.744Z,57.24
2023-03-19T15:31:38.287Z,57.54
2023-03-19T15:34:27.819Z,57.08
2023-03-19T15:37:02.765Z,57.08
2023-03-19T15:39:45.244Z,57.22
2023-03-19T15:42:16.103Z,57.34
2023-03-19T15:44:49.135Z,57.18
2023-03-19T15:47:32.124Z,57.06
2023-03-19T15:50:16.572Z,57.14
2023-03-19T15:52:50.738Z,57.43
2023-03-19T15:55:18.564Z,57.86
2023-03-19T15:57:45.733Z,57.52
2023-03-19T16:00:14.639Z,57.60
2023-03-19T16:02:45.818Z,57.63
2023-03-19T16:05:31.530Z,57.36
2023-03-19T16:08:02.007Z,58.02
2023-03-19T16:10:28.940Z,57.81
2023-03-19T16:12:56.702Z,57.70
2023-03-19T16:15:44.197Z,57.71
2023-03-19T16:18:17.249Z,57.75
2023-03-19T16:21:14.720Z,57.89
2023-03-19T16:23:49.869Z,58.19
2023-03-19T16:26:41.359Z,57.83
2023-03-19T16:29:26.461Z,57.87
2023-03-19T16:32:02.453Z,57.89
2023-03-19T16:34:37.407Z,58.22
2023-03-19T16:37:43.621Z,57.95
2023-03-19T16:40:13.702Z,57.89
2023-03-19T16:42:46.270Z,57.89
2023-03-19T16:45:30.711Z,57.65
2023-03-19T16:48:03.296Z,57.93
2023-03-19T16:50:40.911Z,57.44
2023-03-19T16:53:24.028Z,57.71
2023-03-19T16:55:53.148Z,57.84
2023-03-19T16:58:36.978Z,57.56
2023-03-19T17:01:22.122Z,57.33
2023-03-19T17:03:50.386Z,58.08
2023-03-19T17:06:18.929Z,57.93
2023-03-19T17:08:47.043Z,57.87
2023-03-19T17:11:39.801Z,57.04
2023-03-19T17:14:15.389Z,57.48
2023-03-19T17:16:50.443Z,57.73
2023-03-19T17:19:26.591Z,57.29
2023-03-19T17:21:58.545Z,57.61
2023-03-19T17:24:34.347Z,57.88
2023-03-19T17:27:04.166Z,57.75
2023-03-19T17:29:33.220Z,58.28
2023-03-19T17:32:04.147Z,57.91
2023-03-19T17:34:36.237Z,57.64
2023-03-19T17:37:06.590Z,57.55
2023-03-19T17:39:34.062Z,58.19
2023-03-19T17:42:01.101Z,57.93
2023-03-19T17:44:28.271Z,57.64
2023-03-19T17:46:56.604Z,57.82
2023-03-19T17:49:28.836Z,57.95
2023-03-19T17:51:57.873Z,57.88
2023-03-19T17:54:28.616Z,57.88
2023-03-19T17:56:56.074Z,57.42
2023-03-19T17:59:23.696Z,57.58
2023-03-19T18:01:51.973Z,57.34
2023-03-19T18:04:22.147Z,58.55
2023-03-19T18:06:56.882Z,58.01
2023-03-19T18:09:32.607Z,58.05
2023-03-19T18:11:59.718Z,59.26
2023-03-19T18:14:26.777Z,60.28
2023-03-19T18:16:53.882Z,59.42
2023-03-19T18:19:31.388Z,58.94
2023-03-19T18:21:58.922Z,60.21
2023-03-19T18:24:25.976Z,60.28
2023-03-19T18:26:53.501Z,60.20
2023-03-19T18:29:20.981Z,61.30
2023-03-19T18:31:50.048Z,61.75
2023-03-19T18:34:17.779Z,62.05
2023-03-19T18:36:45.006Z,62.68
2023-03-19T18:39:16.429Z,63.40
2023-03-19T18:41:44.381Z,64.25
2023-03-19T18:44:12.226Z,62.44
2023-03-19T18:46:41.634Z,62.63
2023-03-19T18:49:25.039Z,63.29
2023-03-19T18:52:08.917Z,65.25
2023-03-19T18:54:36.076Z,65.08
2023-03-19T18:57:03.282Z,64.83
2023-03-19T18:59:33.694Z,65.72
2023-03-19T19:02:20.664Z,66.96
2023-03-19T19:04:48.382Z,66.08
2023-03-19T19:07:17.214Z,65.43
2023-03-19T19:09:44.372Z,67.24
2023-03-19T19:12:18.399Z,65.85
2023-03-19T19:14:47.095Z,66.50
2023-03-19T19:17:20.172Z,65.29
2023-03-19T19:19:47.700Z,67.07
2023-03-19T19:22:17.550Z,69.06
2023-03-19T19:24:45.301Z,68.52
2023-03-19T19:27:23.999Z,69.83
2023-03-19T19:29:51.877Z,68.76
2023-03-19T19:32:29.441Z,67.35
2023-03-19T19:34:57.012Z,67.86
2023-03-19T19:37:24.226Z,68.74
2023-03-19T19:39:52.238Z,68.82
2023-03-19T19:42:22.459Z,69.55
2023-03-19T19:44:58.595Z,68.69
2023-03-19T19:47:27.591Z,70.86
2023-03-19T19:49:56.376Z,69.74
2023-03-19T19:52:23.561Z,72.44
2023-03-19T19:54:51.699Z,70.98
2023-03-19T19:57:24.531Z,70.24
2023-03-19T19:59:53.143Z,70.81
2023-03-19T20:02:28.680Z,70.63
2023-03-19T20:04:57.706Z,70.82
2023-03-19T20:07:24.911Z,71.51
2023-03-19T20:09:52.002Z,71.35
2023-03-19T20:12:27.781Z,72.77
2023-03-19T20:14:54.945Z,73.06
2023-03-19T20:17:22.512Z,72.52
2023-03-19T20:19:49.784Z,72.57
2023-03-19T20:22:17.335Z,71.48
2023-03-19T20:24:48.254Z,72.85
2023-03-19T20:27:21.126Z,72.54
2023-03-19T20:29:50.570Z,72.41
2023-03-19T20:32:27.435Z,72.18
2023-03-19T20:34:54.568Z,72.17
2023-03-19T20:37:21.645Z,73.76
2023-03-19T20:39:49.058Z,73.72
2023-03-19T20:42:16.731Z,75.35
2023-03-19T20:44:44.777Z,75.36
2023-03-19T20:47:25.495Z,73.25
2023-03-19T20:49:53.406Z,74.28
2023-03-19T20:52:21.326Z,74.40
2023-03-19T20:54:48.847Z,74.71
2023-03-19T20:57:22.645Z,73.18
2023-03-19T20:59:50.154Z,74.88
2023-03-19T21:02:21.963Z,77.31
2023-03-19T21:04:49.234Z,76.00
2023-03-19T21:07:34.430Z,75.60
2023-03-19T21:10:14.548Z,75.43
2023-03-19T21:12:45.198Z,74.84
2023-03-19T21:15:15.300Z,74.86
2023-03-19T21:17:42.636Z,74.91
2023-03-19T21:20:19.123Z,73.80
2023-03-19T21:22:52.750Z,75.01
2023-03-19T21:25:24.914Z,73.03
2023-03-19T21:27:56.357Z,71.64
2023-03-19T21:30:23.633Z,73.95
2023-03-19T21:32:51.501Z,73.06
2023-03-19T21:35:22.363Z,72.99
2023-03-19T21:37:49.968Z,72.43
2023-03-19T21:40:30.918Z,73.35
2023-03-19T21:43:00.700Z,72.55
2023-03-19T21:45:35.456Z,71.74
2023-03-19T21:48:15.757Z,70.88
2023-03-19T21:50:43.024Z,70.68
2023-03-19T21:53:10.891Z,72.61
2023-03-19T21:55:38.149Z,73.23
2023-03-19T21:58:10.340Z,74.95
2023-03-19T22:00:37.325Z,73.10
2023-03-19T22:03:04.322Z,72.39
2023-03-19T22:05:31.444Z,73.37
2023-03-19T22:07:58.404Z,72.10
2023-03-19T22:10:30.773Z,73.51
2023-03-19T22:12:57.809Z,72.86
2023-03-19T22:15:37.467Z,74.08
2023-03-19T22:18:11.941Z,71.74
2023-03-19T22:20:38.884Z,73.56
2023-03-19T22:23:06.156Z,73.67
2023-03-19T22:25:36.070Z,74.59
2023-03-19T22:28:25.884Z,72.81
2023-03-19T22:30:53.156Z,73.60
2023-03-19T22:33:24.325Z,73.60
2023-03-19T22:35:51.801Z,73.68
2023-03-19T22:38:21.581Z,76.14
2023-03-19T22:40:55.894Z,72.64
2023-03-19T22:43:30.574Z,72.13
2023-03-19T22:46:13.447Z,72.16
2023-03-19T22:48:41.893Z,72.63
2023-03-19T22:51:13.976Z,73.56
2023-03-19T22:53:41.149Z,74.35
2023-03-19T22:56:11.364Z,73.38
2023-03-19T22:58:38.493Z,72.07
2023-03-19T23:01:31.257Z,74.07
2023-03-19T23:04:14.120Z,71.42
2023-03-19T23:06:41.141Z,72.18
2023-03-19T23:09:20.296Z,70.96
2023-03-19T23:11:50.942Z,73.54
2023-03-19T23:14:29.131Z,72.40
2023-03-19T23:17:03.391Z,72.11
2023-03-19T23:19:38.317Z,73.55
2023-03-19T23:22:07.404Z,73.88
2023-03-19T23:24:34.650Z,73.90
2023-03-19T23:27:02.636Z,74.59
2023-03-19T23:29:44.007Z,73.54
2023-03-19T23:32:11.424Z,75.29
2023-03-19T23:34:55.683Z,74.47
2023-03-19T23:37:24.908Z,74.95
2023-03-19T23:39:51.869Z,74.80
2023-03-19T23:42:28.660Z,71.96
2023-03-19T23:45:01.217Z,71.97
2023-03-19T23:47:29.606Z,73.13
2023-03-19T23:49:57.089Z,71.87
2023-03-19T23:52:24.031Z,72.85
2023-03-19T23:54:52.300Z,73.06
2023-03-19T23:57:20.794Z,74.84
2023-03-19T23:59:51.504Z,74.19
